Time;durP1;ratioP1;P1;durP2;ratioP2;P2;SDS_P1;SDS_P2;PMS_P1;PMS_P2;Temp;Humidity;BMP_temperature;BMP_pressure;BME280_temperature;BME280_humidity;BME280_pressure;Samples;Min_cycle;Max_cycle;Signal;HPM_P1;HPM_P2
2022/01/21 00:00:47;;;;;;;5.05;1.20;;;0.30;99.90;;;;;;4993752;28;20053;-73
2022/01/21 00:03:16;;;;;;;5.93;1.20;;;0.20;99.90;;;;;;4991514;28;20503;-73
2022/01/21 00:05:42;;;;;;;6.28;1.00;;;0.20;99.90;;;;;;4991326;28;20033;-73
2022/01/21 00:08:08;;;;;;;6.60;1.60;;;0.30;99.90;;;;;;4994089;28;20030;-71
2022/01/21 00:10:33;;;;;;;6.45;1.27;;;0.30;99.90;;;;;;4991441;28;20053;-72
2022/01/21 00:12:59;;;;;;;7.25;2.38;;;0.30;99.90;;;;;;4993070;28;20477;-72
2022/01/21 00:15:25;;;;;;;5.57;1.20;;;0.30;99.90;;;;;;4992930;28;20040;-73
2022/01/21 00:17:50;;;;;;;7.00;1.48;;;0.30;99.90;;;;;;4992776;28;20472;-72
2022/01/21 00:31:13;;;;;;;10.68;1.27;;;0.30;99.90;;;;;;4989306;28;21803;-75
2022/01/21 00:33:39;;;;;;;4.60;1.23;;;0.30;99.90;;;;;;4992633;28;20030;-72
2022/01/21 00:36:06;;;;;;;5.88;1.27;;;0.30;99.90;;;;;;4991712;28;20029;-71
2022/01/21 00:38:32;;;;;;;7.20;1.15;;;0.30;99.90;;;;;;4993182;28;20027;-73
2022/01/21 00:41:01;;;;;;;6.97;1.33;;;0.30;99.90;;;;;;4988364;28;20038;-73
2022/01/21 00:43:32;;;;;;;7.18;1.15;;;0.30;99.90;;;;;;4990852;28;20034;-72
2022/01/21 00:46:02;;;;;;;5.03;0.90;;;0.30;99.90;;;;;;4991715;28;20061;-72
2022/01/21 00:48:28;;;;;;;6.57;1.40;;;0.40;99.90;;;;;;4993220;28;20018;-72
2022/01/21 00:50:54;;;;;;;9.02;1.27;;;0.40;99.90;;;;;;4987477;28;20300;-72
2022/01/21 00:53:20;;;;;;;5.93;1.33;;;0.40;99.90;;;;;;4992832;28;20032;-72
2022/01/21 00:55:46;;;;;;;8.60;1.92;;;0.50;99.90;;;;;;5000588;28;20406;-75
2022/01/21 00:58:11;;;;;;;4.65;1.30;;;0.50;99.90;;;;;;4993774;28;20035;-72
2022/01/21 01:00:37;;;;;;;6.43;1.30;;;0.50;99.90;;;;;;4991722;28;20077;-72
2022/01/21 01:03:03;;;;;;;11.60;2.42;;;0.50;99.90;;;;;;4992285;28;20031;-71
2022/01/21 01:05:29;;;;;;;7.20;1.13;;;0.50;99.90;;;;;;4974952;28;20034;-72
2022/01/21 01:07:55;;;;;;;6.32;1.92;;;0.50;99.90;;;;;;4988756;28;20041;-72
2022/01/21 01:10:39;;;;;;;8.45;1.48;;;0.50;99.90;;;;;;4989072;28;20396;-73
2022/01/21 01:21:19;;;;;;;4.75;1.23;;;0.50;99.90;;;;;;4988190;28;20037;-72
2022/01/21 01:29:16;;;;;;;8.43;2.58;;;0.40;99.90;;;;;;4990712;28;20157;-73
2022/01/21 01:31:42;;;;;;;6.55;1.42;;;0.40;99.90;;;;;;4987873;28;20385;-73
2022/01/21 01:34:08;;;;;;;8.45;1.38;;;0.40;99.90;;;;;;4991510;28;20029;-73
2022/01/21 01:36:34;;;;;;;10.23;1.33;;;0.40;99.90;;;;;;4991172;28;20031;-73
2022/01/21 01:41:56;;;;;;;7.32;1.35;;;0.40;99.90;;;;;;4988013;28;20034;-73
2022/01/21 01:49:51;;;;;;;6.00;1.35;;;0.40;99.90;;;;;;4990725;28;20060;-74
2022/01/21 01:52:17;;;;;;;4.55;1.38;;;0.40;99.90;;;;;;4990816;28;20439;-71
2022/01/21 01:54:47;;;;;;;5.15;1.50;;;0.30;99.90;;;;;;4992457;28;20488;-72
2022/01/21 01:57:16;;;;;;;9.52;1.50;;;0.30;99.90;;;;;;4990865;28;20053;-72
2022/01/21 01:59:42;;;;;;;16.23;2.08;;;0.30;99.90;;;;;;4989532;28;20333;-74
2022/01/21 02:02:12;;;;;;;14.23;1.58;;;0.30;99.90;;;;;;4973141;28;20628;-72
2022/01/21 02:04:38;;;;;;;5.90;1.27;;;0.30;99.90;;;;;;4991721;28;20679;-72
2022/01/21 02:07:04;;;;;;;10.00;1.70;;;0.30;99.90;;;;;;4988671;28;20476;-73
2022/01/21 02:09:31;;;;;;;4.25;1.08;;;0.30;99.90;;;;;;4990859;28;20106;-75
2022/01/21 02:11:57;;;;;;;13.02;1.60;;;0.30;99.90;;;;;;4989293;28;20033;-72
2022/01/21 02:14:28;;;;;;;12.15;2.00;;;0.30;99.90;;;;;;4991465;28;20140;-74
2022/01/21 02:22:17;;;;;;;7.45;1.55;;;0.30;99.90;;;;;;4991086;28;20049;-73
2022/01/21 02:25:10;;;;;;;12.73;1.70;;;0.40;99.90;;;;;;4991016;28;20030;-72
2022/01/21 02:27:36;;;;;;;11.45;2.28;;;0.40;99.90;;;;;;4988767;28;20034;-72
2022/01/21 02:30:05;;;;;;;13.38;1.45;;;0.30;99.90;;;;;;4987118;28;20481;-74
2022/01/21 02:32:31;;;;;;;15.07;1.90;;;0.40;99.90;;;;;;4989286;28;20030;-73
2022/01/21 02:34:57;;;;;;;14.88;1.90;;;0.40;99.90;;;;;;4991322;28;20018;-73
2022/01/21 02:37:23;;;;;;;13.48;2.53;;;0.40;99.90;;;;;;4991262;28;20018;-74
2022/01/21 02:39:49;;;;;;;6.68;1.30;;;0.40;99.90;;;;;;4994254;28;20033;-72
2022/01/21 02:42:15;;;;;;;14.70;2.10;;;0.40;99.90;;;;;;4995490;28;20408;-73
2022/01/21 02:44:42;;;;;;;9.80;1.45;;;0.40;99.90;;;;;;4991920;28;20030;-73
2022/01/21 02:47:08;;;;;;;14.38;1.50;;;0.40;99.90;;;;;;4993510;28;20535;-72
2022/01/21 02:49:35;;;;;;;10.73;1.60;;;0.40;99.90;;;;;;4993981;28;20034;-74
2022/01/21 02:52:03;;;;;;;10.00;1.77;;;0.40;99.90;;;;;;4992404;28;20088;-74
2022/01/21 02:54:31;;;;;;;11.05;1.50;;;0.40;99.90;;;;;;4993820;28;20019;-75
2022/01/21 02:57:03;;;;;;;13.40;2.70;;;0.50;99.90;;;;;;4992340;28;20029;-74
2022/01/21 02:59:29;;;;;;;14.02;1.63;;;0.50;99.90;;;;;;4999674;28;20022;-74
2022/01/21 03:01:54;;;;;;;13.00;2.47;;;0.50;99.90;;;;;;4992734;28;20040;-75
2022/01/21 03:04:32;;;;;;;8.25;1.40;;;0.60;99.90;;;;;;4993202;28;20376;-75
2022/01/21 03:06:58;;;;;;;12.10;1.50;;;0.60;99.90;;;;;;4992120;28;20057;-74
2022/01/21 03:09:24;;;;;;;14.63;1.52;;;0.60;99.90;;;;;;4992202;28;20396;-75
2022/01/21 03:11:50;;;;;;;13.15;2.00;;;0.60;99.90;;;;;;4990314;28;20030;-75
2022/01/21 03:14:15;;;;;;;8.60;1.65;;;0.60;99.90;;;;;;4991673;28;20032;-75
2022/01/21 03:16:41;;;;;;;10.77;1.52;;;0.70;99.90;;;;;;4994100;28;20037;-75
2022/01/21 03:19:07;;;;;;;11.60;1.77;;;0.70;99.90;;;;;;4989564;28;20485;-74
2022/01/21 03:21:32;;;;;;;11.48;1.85;;;0.80;99.90;;;;;;4990879;28;20285;-74
2022/01/21 03:23:59;;;;;;;9.52;2.03;;;0.80;99.90;;;;;;4989559;28;20462;-75
2022/01/21 03:26:27;;;;;;;13.30;1.98;;;0.90;99.90;;;;;;4987987;28;20038;-75
2022/01/21 03:28:55;;;;;;;11.32;1.63;;;0.90;99.90;;;;;;4991293;28;20109;-75
2022/01/21 03:31:21;;;;;;;11.38;1.77;;;0.90;99.90;;;;;;4989290;28;20033;-73
2022/01/21 03:33:47;;;;;;;20.13;1.98;;;1.00;99.90;;;;;;4989945;28;20030;-74
2022/01/21 03:36:13;;;;;;;11.50;1.98;;;1.00;99.90;;;;;;4988860;28;20032;-74
2022/01/21 03:38:40;;;;;;;12.10;2.75;;;1.00;99.90;;;;;;4989639;28;20034;-74
2022/01/21 03:41:07;;;;;;;12.40;2.40;;;1.00;99.90;;;;;;4984864;28;20058;-74
2022/01/21 03:43:33;;;;;;;14.32;1.65;;;1.00;99.90;;;;;;4989301;28;20034;-75
2022/01/21 03:45:59;;;;;;;16.27;1.90;;;1.10;99.90;;;;;;4988227;28;20118;-73
2022/01/21 03:48:25;;;;;;;12.63;1.70;;;1.10;99.90;;;;;;4988466;28;20101;-75
2022/01/21 03:50:51;;;;;;;5.68;1.60;;;1.10;99.90;;;;;;4986716;28;20573;-75
2022/01/21 03:53:17;;;;;;;11.77;1.77;;;1.20;99.90;;;;;;4987714;28;20376;-75
2022/01/21 03:55:44;;;;;;;16.85;2.17;;;1.20;99.90;;;;;;4989329;28;20026;-75
2022/01/21 03:58:10;;;;;;;9.02;1.92;;;1.30;99.90;;;;;;4988361;28;20034;-73
2022/01/21 04:00:43;;;;;;;10.90;1.90;;;1.30;99.90;;;;;;4988980;28;20077;-74
2022/01/21 04:03:09;;;;;;;15.13;2.08;;;1.40;99.90;;;;;;4973563;28;20116;-75
2022/01/21 04:05:35;;;;;;;12.73;1.90;;;1.40;99.90;;;;;;4987176;28;20201;-75
2022/01/21 04:08:05;;;;;;;11.75;1.98;;;1.40;99.90;;;;;;4991555;28;20076;-74
2022/01/21 04:10:31;;;;;;;10.25;1.45;;;1.40;99.90;;;;;;4988381;28;20480;-74
2022/01/21 04:12:57;;;;;;;13.43;2.63;;;1.50;99.90;;;;;;4989495;28;20034;-74
2022/01/21 04:15:23;;;;;;;19.27;2.22;;;1.50;99.90;;;;;;4986247;28;20026;-74
2022/01/21 04:17:49;;;;;;;11.27;1.55;;;1.50;99.90;;;;;;4988414;28;20033;-74
2022/01/21 04:20:16;;;;;;;15.30;2.20;;;1.50;99.90;;;;;;4989228;28;20030;-75
2022/01/21 04:22:42;;;;;;;7.65;1.80;;;1.50;99.90;;;;;;4989064;28;20081;-74
2022/01/21 04:25:08;;;;;;;9.60;2.53;;;1.50;99.90;;;;;;4989417;28;20026;-75
2022/01/21 04:27:35;;;;;;;9.13;1.95;;;1.60;99.90;;;;;;4989015;28;20027;-74
2022/01/21 04:30:00;;;;;;;12.82;2.05;;;1.60;99.90;;;;;;4987798;28;20031;-72
2022/01/21 04:32:26;;;;;;;13.30;2.17;;;1.60;99.90;;;;;;4985680;28;20022;-74
2022/01/21 04:34:52;;;;;;;16.88;1.92;;;1.70;99.90;;;;;;4989557;28;20057;-75
2022/01/21 04:37:17;;;;;;;16.92;2.55;;;1.70;99.90;;;;;;4988709;28;20028;-74
2022/01/21 04:39:54;;;;;;;14.93;2.15;;;1.80;99.90;;;;;;4988730;28;20087;-74
2022/01/21 04:47:38;;;;;;;12.23;2.33;;;1.80;99.90;;;;;;4987708;28;20036;-74
2022/01/21 04:50:10;;;;;;;15.20;2.38;;;1.70;99.90;;;;;;4986508;28;20400;-74
2022/01/21 04:52:35;;;;;;;16.08;2.05;;;1.70;99.90;;;;;;4990172;28;20506;-74
2022/01/21 04:55:01;;;;;;;18.20;2.15;;;1.70;99.90;;;;;;4988239;28;20022;-72
2022/01/21 04:57:28;;;;;;;17.50;2.10;;;1.60;99.90;;;;;;4989583;28;20030;-75
2022/01/21 04:59:54;;;;;;;16.63;2.90;;;1.60;99.90;;;;;;4988489;28;20081;-75
2022/01/21 05:02:20;;;;;;;13.15;2.25;;;1.60;99.90;;;;;;4982281;28;20030;-74
2022/01/21 05:04:46;;;;;;;14.50;2.17;;;1.60;99.90;;;;;;4988154;28;20495;-74
2022/01/21 05:07:14;;;;;;;11.77;2.10;;;1.60;99.90;;;;;;4987646;28;20046;-74
2022/01/21 05:09:40;;;;;;;11.55;2.15;;;1.60;99.90;;;;;;4989196;28;20042;-75
2022/01/21 05:12:08;;;;;;;17.08;3.70;;;1.60;99.90;;;;;;4989135;28;20045;-74
2022/01/21 05:14:48;;;;;;;11.40;2.22;;;1.60;99.90;;;;;;4986292;28;20022;-75
2022/01/21 05:17:15;;;;;;;10.93;1.92;;;1.60;99.90;;;;;;4987162;28;20101;-75
2022/01/21 05:19:42;;;;;;;15.35;1.90;;;1.60;99.90;;;;;;4987211;28;20035;-74
2022/01/21 05:22:08;;;;;;;24.10;3.00;;;1.60;99.90;;;;;;4985196;28;20041;-75
2022/01/21 05:24:35;;;;;;;13.00;2.55;;;1.60;99.90;;;;;;4989184;28;20101;-73
2022/01/21 05:27:01;;;;;;;18.10;2.70;;;1.60;99.90;;;;;;4991288;28;20031;-74
2022/01/21 05:29:31;;;;;;;14.05;2.00;;;1.60;99.90;;;;;;4990942;28;20202;-75
2022/01/21 05:31:59;;;;;;;15.60;2.35;;;1.60;99.90;;;;;;4990044;28;20057;-75
2022/01/21 05:34:24;;;;;;;17.23;2.30;;;1.60;99.90;;;;;;4989702;28;20030;-71
2022/01/21 05:36:50;;;;;;;13.00;2.78;;;1.60;99.90;;;;;;4991236;28;20424;-74
2022/01/21 05:39:17;;;;;;;13.85;1.98;;;1.60;99.90;;;;;;4990054;28;20038;-75
2022/01/21 05:41:49;;;;;;;14.00;1.88;;;1.60;99.90;;;;;;4989587;28;20116;-75
2022/01/21 05:46:56;;;;;;;11.63;2.40;;;1.70;99.90;;;;;;4987637;28;20030;-73
2022/01/21 05:49:23;;;;;;;20.83;2.15;;;1.70;99.90;;;;;;4988762;28;20026;-75
2022/01/21 05:51:52;;;;;;;16.80;3.25;;;1.70;99.90;;;;;;4986533;28;20019;-75
2022/01/21 05:54:23;;;;;;;8.20;1.88;;;1.70;99.90;;;;;;4987158;28;20425;-75
2022/01/21 05:56:49;;;;;;;19.73;3.15;;;1.70;99.90;;;;;;4987753;28;20101;-73
2022/01/21 05:59:15;;;;;;;9.48;1.52;;;1.80;99.90;;;;;;4985338;28;20026;-74
2022/01/21 06:01:40;;;;;;;12.52;1.50;;;1.70;99.90;;;;;;4984291;28;20062;-75
2022/01/21 06:04:07;;;;;;;9.82;1.70;;;1.70;99.90;;;;;;4982068;28;20036;-74
2022/01/21 06:06:33;;;;;;;7.78;1.40;;;1.70;99.90;;;;;;4983646;28;20026;-74
2022/01/21 06:08:59;;;;;;;10.45;1.42;;;1.70;99.90;;;;;;4985456;28;20045;-74
2022/01/21 06:11:24;;;;;;;7.90;1.60;;;1.60;99.90;;;;;;4985360;28;20093;-73
2022/01/21 06:13:50;;;;;;;13.18;1.88;;;1.60;99.90;;;;;;4990422;28;20031;-73
2022/01/21 06:16:19;;;;;;;11.30;1.98;;;1.60;99.90;;;;;;4987194;28;20030;-73
2022/01/21 06:18:45;;;;;;;9.73;1.60;;;1.60;99.90;;;;;;4990217;28;20567;-75
2022/01/21 06:21:11;;;;;;;5.63;1.20;;;1.60;99.90;;;;;;4993258;28;20377;-75
2022/01/21 06:23:37;;;;;;;14.27;1.65;;;1.60;99.90;;;;;;4991274;28;20030;-75
2022/01/21 06:26:03;;;;;;;9.98;1.40;;;1.50;99.90;;;;;;4992672;28;20026;-75
2022/01/21 06:28:29;;;;;;;10.13;1.50;;;1.50;99.90;;;;;;4994807;28;20040;-73
2022/01/21 06:30:55;;;;;;;10.23;1.75;;;1.50;99.90;;;;;;4971754;28;20065;-74
2022/01/21 06:33:20;;;;;;;11.55;1.40;;;1.50;99.90;;;;;;4988582;28;20388;-73
2022/01/21 06:35:50;;;;;;;6.70;1.30;;;1.50;99.90;;;;;;4986869;28;20467;-73
2022/01/21 06:38:17;;;;;;;10.65;2.13;;;1.50;99.90;;;;;;4991188;28;20034;-75
2022/01/21 06:40:43;;;;;;;7.43;1.90;;;1.50;99.90;;;;;;4990553;28;20057;-73
2022/01/21 06:43:09;;;;;;;7.00;1.58;;;1.50;99.90;;;;;;4989125;28;20060;-72
2022/01/21 06:45:35;;;;;;;11.90;1.75;;;1.50;99.90;;;;;;4990860;28;20030;-72
2022/01/21 06:48:02;;;;;;;8.75;1.85;;;1.50;99.90;;;;;;4992572;28;20038;-74
2022/01/21 06:50:29;;;;;;;8.50;1.52;;;1.50;99.90;;;;;;4989970;28;20551;-74
2022/01/21 06:52:55;;;;;;;10.15;1.95;;;1.50;99.90;;;;;;4992922;28;20034;-74
2022/01/21 06:55:21;;;;;;;14.48;1.63;;;1.40;99.90;;;;;;4990991;28;20026;-73
2022/01/21 06:57:47;;;;;;;7.30;1.50;;;1.40;99.90;;;;;;4993718;28;20435;-74
2022/01/21 07:00:18;;;;;;;7.00;1.70;;;1.40;99.90;;;;;;4991745;28;20035;-75
2022/01/21 07:02:47;;;;;;;10.32;1.88;;;1.30;99.90;;;;;;4991357;28;20030;-74
2022/01/21 07:05:13;;;;;;;8.45;1.55;;;1.30;99.90;;;;;;4990911;28;20026;-75
2022/01/21 07:07:39;;;;;;;9.10;1.90;;;1.30;99.90;;;;;;4991971;28;20405;-72
2022/01/21 07:10:06;;;;;;;14.68;1.92;;;1.30;99.90;;;;;;4990654;28;20034;-72
2022/01/21 07:12:36;;;;;;;7.93;1.80;;;1.30;99.90;;;;;;4992639;28;20030;-73
2022/01/21 07:15:08;;;;;;;11.90;2.75;;;1.30;99.90;;;;;;4992822;28;20457;-72
2022/01/21 07:17:34;;;;;;;4.13;1.10;;;1.30;99.90;;;;;;4989516;28;20019;-73
2022/01/21 07:20:00;;;;;;;9.90;1.17;;;1.20;99.90;;;;;;4992270;28;20030;-73
2022/01/21 07:22:26;;;;;;;7.95;1.65;;;1.20;99.90;;;;;;4990515;28;20081;-72
2022/01/21 07:24:52;;;;;;;12.63;1.63;;;1.20;99.90;;;;;;4994266;28;20026;-76
2022/01/21 07:27:17;;;;;;;10.43;1.30;;;1.20;99.90;;;;;;4988698;28;20085;-72
2022/01/21 07:29:43;;;;;;;5.50;1.20;;;1.20;99.90;;;;;;4994199;28;20026;-72
2022/01/21 07:32:09;;;;;;;7.28;1.30;;;1.20;99.90;;;;;;4994068;28;20053;-72
2022/01/21 07:34:36;;;;;;;8.88;1.42;;;1.20;99.90;;;;;;4993709;28;20046;-73
2022/01/21 07:37:01;;;;;;;7.13;1.02;;;1.20;99.90;;;;;;4990808;28;20089;-73
2022/01/21 07:39:27;;;;;;;7.80;2.55;;;1.20;99.90;;;;;;4991899;28;20031;-73
2022/01/21 07:41:53;;;;;;;11.35;1.80;;;1.20;99.90;;;;;;4993025;28;20447;-73
2022/01/21 07:44:19;;;;;;;6.28;1.70;;;1.10;99.90;;;;;;4991557;28;20038;-73
2022/01/21 07:46:46;;;;;;;5.57;1.35;;;1.10;99.90;;;;;;4987707;28;20038;-74
2022/01/21 07:49:12;;;;;;;10.95;1.70;;;1.10;99.90;;;;;;4987791;28;20038;-73
2022/01/21 07:51:38;;;;;;;9.45;1.23;;;1.10;99.90;;;;;;4984845;28;20050;-75
2022/01/21 07:54:07;;;;;;;10.80;1.52;;;1.10;99.90;;;;;;4989912;28;20018;-72
2022/01/21 07:56:33;;;;;;;7.97;1.70;;;1.10;99.90;;;;;;4999035;28;20082;-73
2022/01/21 07:59:00;;;;;;;7.00;1.40;;;1.10;99.90;;;;;;4991195;28;20038;-73
2022/01/21 08:01:26;;;;;;;8.30;1.70;;;1.10;99.90;;;;;;4991125;28;20076;-73
2022/01/21 08:03:52;;;;;;;10.95;1.55;;;1.10;99.90;;;;;;4991375;28;20436;-73
2022/01/21 08:06:18;;;;;;;8.30;1.60;;;1.10;99.90;;;;;;4993453;28;20037;-72
2022/01/21 08:08:43;;;;;;;13.50;3.33;;;1.10;99.90;;;;;;4991881;28;20030;-73
2022/01/21 08:11:09;;;;;;;10.75;1.50;;;1.10;99.90;;;;;;4991505;28;20030;-75
2022/01/21 08:13:35;;;;;;;6.60;1.27;;;1.20;99.90;;;;;;4992283;28;20152;-71
2022/01/21 08:16:01;;;;;;;16.13;1.55;;;1.20;99.90;;;;;;4989146;28;20027;-72
2022/01/21 08:18:26;;;;;;;3.58;1.13;;;1.20;99.90;;;;;;4990663;28;20026;-72
2022/01/21 08:20:52;;;;;;;10.27;1.40;;;1.30;99.90;;;;;;4992835;28;20030;-73
2022/01/21 08:23:22;;;;;;;6.13;1.10;;;1.30;99.90;;;;;;4991555;28;20504;-72
2022/01/21 08:25:48;;;;;;;4.47;1.17;;;1.30;99.90;;;;;;4988571;28;20053;-74
2022/01/21 08:28:14;;;;;;;7.25;1.13;;;1.20;99.90;;;;;;4989415;28;20113;-73
2022/01/21 08:30:40;;;;;;;4.75;1.20;;;1.20;99.90;;;;;;4989612;28;20516;-73
2022/01/21 08:33:06;;;;;;;8.02;2.08;;;1.20;99.90;;;;;;4988448;28;20164;-74
2022/01/21 08:35:32;;;;;;;4.30;1.00;;;1.20;99.90;;;;;;4971287;28;20132;-73
2022/01/21 08:37:58;;;;;;;12.43;1.70;;;1.20;99.90;;;;;;4989737;28;20057;-73
2022/01/21 08:40:25;;;;;;;5.82;1.23;;;1.20;99.90;;;;;;4990808;28;20472;-73
2022/01/21 08:42:51;;;;;;;17.40;3.67;;;1.20;99.90;;;;;;4992397;28;20480;-72
2022/01/21 08:45:18;;;;;;;7.03;1.42;;;1.20;99.90;;;;;;4993056;28;20034;-73
2022/01/21 08:47:44;;;;;;;11.32;1.20;;;1.20;99.90;;;;;;4990180;28;20050;-71
2022/01/21 08:50:13;;;;;;;8.93;1.23;;;1.20;99.90;;;;;;4991500;28;20459;-72
2022/01/21 08:52:41;;;;;;;9.70;1.30;;;1.30;99.90;;;;;;4992018;28;20034;-76
2022/01/21 08:55:18;;;;;;;6.95;1.33;;;1.30;99.90;;;;;;4990343;28;20034;-73
2022/01/21 08:57:47;;;;;;;6.70;1.25;;;1.30;99.90;;;;;;4985764;28;20027;-73
2022/01/21 09:00:18;;;;;;;6.75;1.10;;;1.30;99.90;;;;;;4988179;28;20026;-72
2022/01/21 09:02:44;;;;;;;5.15;1.20;;;1.30;99.90;;;;;;4989505;28;20042;-72
2022/01/21 09:05:10;;;;;;;7.70;1.30;;;1.40;99.90;;;;;;4990625;28;20042;-74
2022/01/21 09:07:39;;;;;;;8.85;1.40;;;1.40;99.90;;;;;;4989911;28;20065;-72
2022/01/21 09:10:07;;;;;;;5.63;1.30;;;1.40;99.90;;;;;;4990285;28;20037;-73
2022/01/21 09:12:33;;;;;;;5.63;1.67;;;1.50;99.90;;;;;;4989917;28;20018;-73
2022/01/21 09:14:59;;;;;;;3.88;1.30;;;1.50;99.90;;;;;;4989618;28;20057;-72
2022/01/21 09:17:25;;;;;;;8.60;2.20;;;1.50;99.90;;;;;;4991042;28;20061;-71
2022/01/21 09:19:51;;;;;;;11.65;2.47;;;1.60;99.90;;;;;;4990482;28;20253;-73
2022/01/21 09:22:17;;;;;;;10.65;2.60;;;1.60;99.90;;;;;;4989051;28;20026;-71
2022/01/21 09:24:43;;;;;;;8.50;1.90;;;1.70;99.90;;;;;;4989850;28;20488;-72
2022/01/21 09:27:09;;;;;;;7.47;2.47;;;1.70;99.90;;;;;;4990003;28;20038;-71
2022/01/21 09:29:35;;;;;;;6.68;2.15;;;1.70;99.90;;;;;;4989713;28;20034;-71
2022/01/21 09:32:03;;;;;;;7.75;2.55;;;1.70;99.90;;;;;;4988749;28;20038;-72
2022/01/21 09:34:29;;;;;;;6.63;1.65;;;1.80;99.90;;;;;;4989204;28;20030;-72
2022/01/21 09:36:57;;;;;;;5.63;1.27;;;1.80;99.90;;;;;;4990293;28;20131;-71
2022/01/21 09:39:23;;;;;;;3.60;1.10;;;1.80;99.90;;;;;;4989420;28;20038;-71
2022/01/21 09:41:50;;;;;;;7.63;1.88;;;1.80;99.90;;;;;;4988344;28;20031;-72
2022/01/21 09:44:19;;;;;;;9.93;3.03;;;1.90;99.90;;;;;;4990543;28;20477;-77
2022/01/21 09:46:50;;;;;;;6.70;1.20;;;1.90;99.90;;;;;;4988591;28;20054;-72
2022/01/21 09:49:26;;;;;;;4.10;1.30;;;1.90;99.90;;;;;;4989841;28;20097;-71
2022/01/21 09:52:01;;;;;;;3.03;1.20;;;2.00;99.70;;;;;;4989258;28;20101;-74
2022/01/21 09:54:31;;;;;;;5.07;1.60;;;2.10;99.30;;;;;;4987718;28;20100;-73
2022/01/21 09:56:58;;;;;;;5.97;1.30;;;2.10;99.10;;;;;;4989555;28;20489;-73
2022/01/21 09:59:26;;;;;;;6.03;1.48;;;2.20;99.00;;;;;;4988870;28;20034;-72
2022/01/21 10:01:55;;;;;;;5.65;1.23;;;2.20;99.20;;;;;;4988740;28;20076;-71
2022/01/21 10:04:25;;;;;;;1.98;1.10;;;2.20;99.50;;;;;;4987952;28;20692;-71
2022/01/21 10:06:54;;;;;;;7.27;1.30;;;2.40;99.90;;;;;;4990752;28;20512;-72
2022/01/21 10:09:21;;;;;;;6.90;1.75;;;2.40;99.70;;;;;;4989117;28;20030;-73
2022/01/21 10:11:49;;;;;;;7.93;1.55;;;2.40;99.10;;;;;;4988288;28;20030;-73
2022/01/21 10:14:26;;;;;;;4.40;1.10;;;2.40;98.90;;;;;;4990167;28;20045;-73
2022/01/21 10:16:53;;;;;;;9.02;2.03;;;2.50;99.90;;;;;;4990558;28;20061;-72
2022/01/21 10:19:33;;;;;;;9.80;2.25;;;2.50;99.50;;;;;;4988628;28;20500;-73
2022/01/21 10:22:01;;;;;;;9.02;1.90;;;2.60;99.60;;;;;;4988431;28;20424;-73
2022/01/21 10:24:27;;;;;;;6.40;1.48;;;2.60;99.90;;;;;;4989198;28;20504;-73
2022/01/21 10:26:55;;;;;;;9.32;1.70;;;2.50;99.80;;;;;;4988398;28;20374;-74
2022/01/21 10:29:21;;;;;;;4.43;1.10;;;2.60;99.90;;;;;;4990608;28;20481;-72
2022/01/21 10:32:01;;;;;;;3.65;0.90;;;2.60;99.90;;;;;;4988813;28;20092;-72
2022/01/21 10:34:42;;;;;;;8.93;1.40;;;2.70;99.90;;;;;;4986687;28;20456;-73
2022/01/21 10:37:26;;;;;;;6.28;1.40;;;2.70;99.90;;;;;;4989325;28;20109;-72
2022/01/21 10:39:59;;;;;;;8.90;1.17;;;2.80;99.90;;;;;;4988057;28;20092;-72
2022/01/21 10:42:26;;;;;;;3.50;1.25;;;2.80;99.90;;;;;;4987936;28;20093;-73
2022/01/21 10:44:52;;;;;;;6.07;1.10;;;2.80;99.90;;;;;;4989226;28;20648;-72
2022/01/21 10:47:18;;;;;;;7.15;1.30;;;2.90;99.90;;;;;;4989510;28;20038;-72
2022/01/21 10:49:59;;;;;;;10.88;1.50;;;2.90;99.90;;;;;;4990371;28;20066;-72
2022/01/21 10:52:37;;;;;;;12.30;2.67;;;3.00;99.90;;;;;;4990425;28;20023;-73
2022/01/21 10:55:06;;;;;;;10.07;1.30;;;3.10;99.90;;;;;;4990811;28;20097;-72
2022/01/21 10:57:32;;;;;;;7.35;1.27;;;3.20;99.90;;;;;;4988462;28;20026;-72
2022/01/21 11:00:05;;;;;;;8.65;1.40;;;3.20;99.90;;;;;;4992160;28;20045;-72
2022/01/21 11:02:33;;;;;;;10.65;1.60;;;3.20;99.90;;;;;;4993663;28;20042;-71
2022/01/21 11:05:07;;;;;;;6.25;1.67;;;3.20;99.90;;;;;;4993357;28;20034;-71
2022/01/21 11:07:57;;;;;;;4.40;1.20;;;3.30;99.90;;;;;;4991730;28;20038;-73
2022/01/21 11:10:37;;;;;;;7.50;2.27;;;3.30;99.90;;;;;;4991561;28;20023;-73
2022/01/21 11:13:12;;;;;;;10.35;1.65;;;3.40;99.90;;;;;;4991470;28;20463;-72
2022/01/21 11:15:43;;;;;;;12.25;1.80;;;3.40;99.90;;;;;;4990237;28;20026;-73
2022/01/21 11:18:13;;;;;;;7.18;1.70;;;3.50;99.90;;;;;;4992055;28;20452;-75
2022/01/21 11:20:41;;;;;;;4.15;1.05;;;3.60;99.90;;;;;;4992339;28;20030;-74
2022/01/21 11:23:10;;;;;;;8.95;1.88;;;3.60;99.90;;;;;;4992323;28;20098;-74
2022/01/21 11:25:54;;;;;;;8.27;1.55;;;3.70;99.90;;;;;;4988706;28;20019;-73
2022/01/21 11:28:24;;;;;;;10.43;1.67;;;3.80;99.90;;;;;;4992324;28;20447;-73
2022/01/21 11:30:53;;;;;;;6.30;1.15;;;3.80;99.90;;;;;;4992124;28;20068;-73
2022/01/21 11:33:20;;;;;;;10.98;1.55;;;3.90;99.90;;;;;;4990645;28;20495;-73
2022/01/21 11:35:50;;;;;;;7.60;1.38;;;4.00;99.90;;;;;;4991767;28;20026;-72
2022/01/21 11:38:18;;;;;;;12.48;2.10;;;4.10;99.90;;;;;;4991951;28;20026;-73
2022/01/21 11:40:44;;;;;;;7.90;1.90;;;4.20;99.90;;;;;;4990548;28;20019;-75
2022/01/21 11:43:11;;;;;;;9.57;1.70;;;4.40;99.90;;;;;;4991666;28;20031;-73
2022/01/21 11:50:49;;;;;;;6.03;1.63;;;4.60;99.90;;;;;;4990356;28;20034;-74
2022/01/21 11:53:35;;;;;;;9.93;2.25;;;4.70;99.90;;;;;;4991177;28;20064;-72
2022/01/21 11:56:06;;;;;;;6.05;1.80;;;4.60;99.90;;;;;;4988795;28;20097;-72
2022/01/21 11:58:32;;;;;;;9.45;1.60;;;4.60;99.90;;;;;;4992156;28;20056;-72
2022/01/21 12:01:05;;;;;;;6.25;1.30;;;4.70;99.90;;;;;;4990466;28;20077;-73
2022/01/21 12:03:54;;;;;;;9.85;1.73;;;4.80;99.90;;;;;;4989481;28;20037;-73
2022/01/21 12:06:36;;;;;;;10.45;1.55;;;4.80;99.90;;;;;;4990999;28;20039;-73
2022/01/21 12:09:08;;;;;;;11.15;2.28;;;4.80;99.90;;;;;;4989193;28;20145;-73
2022/01/21 12:11:37;;;;;;;11.23;1.98;;;4.80;99.90;;;;;;4992130;28;20467;-73
2022/01/21 12:14:33;;;;;;;7.68;1.45;;;4.80;99.90;;;;;;4989909;28;20026;-73
2022/01/21 12:17:14;;;;;;;7.18;1.42;;;4.80;99.90;;;;;;4989095;28;20299;-73
2022/01/21 12:19:41;;;;;;;7.47;1.50;;;4.90;99.90;;;;;;4986841;28;20559;-72
2022/01/21 12:22:18;;;;;;;10.27;2.05;;;5.00;99.90;;;;;;4989755;28;20060;-73
2022/01/21 12:25:05;;;;;;;10.65;2.08;;;5.00;99.90;;;;;;4991879;28;20476;-73
2022/01/21 12:27:31;;;;;;;6.13;1.45;;;5.10;99.90;;;;;;4991597;28;20042;-77
2022/01/21 12:30:30;;;;;;;18.35;2.55;;;5.10;99.90;;;;;;4991625;28;20030;-72
2022/01/21 12:33:04;;;;;;;12.13;1.52;;;5.10;99.90;;;;;;4968435;28;20476;-73
2022/01/21 12:35:31;;;;;;;6.65;1.40;;;5.10;99.90;;;;;;4991284;28;20038;-72
2022/01/21 12:41:28;;;;;;;12.02;1.50;;;5.10;99.90;;;;;;4991838;28;20066;-71
2022/01/21 12:44:06;;;;;;;13.95;1.90;;;5.00;99.90;;;;;;4987358;28;20031;-70
2022/01/21 12:46:40;;;;;;;9.05;2.00;;;5.10;99.90;;;;;;4991178;28;20026;-72
2022/01/21 12:49:33;;;;;;;8.80;1.70;;;5.00;99.90;;;;;;4990661;28;21782;-74
2022/01/21 12:57:27;;;;;;;12.68;2.40;;;5.10;99.90;;;;;;4990665;28;20037;-74
2022/01/21 12:59:59;;;;;;;10.85;2.47;;;5.10;99.90;;;;;;4990551;28;20383;-75
2022/01/21 13:02:29;;;;;;;6.72;1.33;;;5.20;99.90;;;;;;4990284;28;20108;-74
2022/01/21 13:05:32;;;;;;;14.10;2.20;;;5.20;99.90;;;;;;4990410;28;20034;-75
2022/01/21 13:08:11;;;;;;;12.38;1.73;;;5.20;99.90;;;;;;4978305;28;20038;-75
2022/01/21 13:10:40;;;;;;;10.10;2.20;;;5.10;99.90;;;;;;4989647;28;20042;-73
2022/01/21 13:15:38;;;;;;;6.32;1.45;;;5.10;99.90;;;;;;4989921;28;20030;-75
2022/01/21 13:18:14;;;;;;;7.32;1.33;;;5.10;99.90;;;;;;4993545;28;20031;-74
2022/01/21 13:20:43;;;;;;;12.70;2.30;;;5.10;99.90;;;;;;4991365;28;20049;-74
2022/01/21 13:23:09;;;;;;;10.10;2.05;;;5.10;99.90;;;;;;4973083;28;20030;-74
2022/01/21 13:25:36;;;;;;;11.48;2.13;;;5.10;99.90;;;;;;4992570;28;20037;-74
2022/01/21 13:28:05;;;;;;;12.07;1.98;;;5.10;99.90;;;;;;4991665;28;20026;-73
2022/01/21 13:30:35;;;;;;;10.93;1.60;;;5.20;99.90;;;;;;4992677;28;20031;-72
2022/01/21 13:33:07;;;;;;;12.45;1.80;;;5.30;99.90;;;;;;4992216;28;20057;-74
2022/01/21 13:35:35;;;;;;;11.55;1.70;;;5.30;99.90;;;;;;4990882;28;20503;-75
2022/01/21 13:38:15;;;;;;;11.55;1.50;;;5.30;99.90;;;;;;4987085;28;20049;-76
2022/01/21 13:40:47;;;;;;;11.95;2.13;;;5.30;99.90;;;;;;4992954;28;20467;-75
2022/01/21 13:43:18;;;;;;;6.65;1.50;;;5.30;99.90;;;;;;4992129;28;20101;-77
2022/01/21 13:45:56;;;;;;;16.48;2.13;;;5.30;99.90;;;;;;4993480;28;20018;-78
2022/01/21 13:48:23;;;;;;;14.15;1.92;;;5.40;99.90;;;;;;4993086;28;20033;-76
2022/01/21 13:50:49;;;;;;;14.73;1.75;;;5.40;99.90;;;;;;4991790;28;20030;-75
2022/01/21 13:53:15;;;;;;;13.85;2.45;;;5.40;99.90;;;;;;4990244;28;20436;-77
2022/01/21 13:55:44;;;;;;;14.65;1.85;;;5.40;99.90;;;;;;4992378;28;20027;-74
2022/01/21 13:58:17;;;;;;;16.67;3.55;;;5.30;99.90;;;;;;4992115;28;20034;-77
2022/01/21 14:00:52;;;;;;;9.20;1.80;;;5.30;99.90;;;;;;4989987;28;20100;-75
2022/01/21 14:03:31;;;;;;;8.75;1.60;;;5.20;99.90;;;;;;4991115;28;20033;-76